createdAt,value
2023-01-20T00:02:44.831Z,67.42
2023-01-20T00:05:54.883Z,67.75
2023-01-20T00:09:05.374Z,67.26
2023-01-20T00:12:11.637Z,67.30
2023-01-20T00:15:17.433Z,67.24
2023-01-20T00:18:26.484Z,67.62
2023-01-20T00:21:32.029Z,67.52
2023-01-20T00:24:38.355Z,67.66
2023-01-20T00:27:43.766Z,67.57
2023-01-20T00:30:50.045Z,67.20
2023-01-20T00:34:02.147Z,67.20
2023-01-20T00:37:08.857Z,67.00
2023-01-20T00:40:15.353Z,66.57
2023-01-20T00:43:21.611Z,67.04
2023-01-20T00:46:27.025Z,67.31
2023-01-20T00:49:36.023Z,67.25
2023-01-20T00:52:41.842Z,67.34
2023-01-20T00:55:48.352Z,66.97
2023-01-20T00:58:55.359Z,67.13
2023-01-20T01:02:29.564Z,66.76
2023-01-20T01:05:37.841Z,66.42
2023-01-20T01:08:44.429Z,66.13
2023-01-20T01:11:49.860Z,66.09
2023-01-20T01:14:56.144Z,65.73
2023-01-20T01:18:03.344Z,65.95
2023-01-20T01:21:16.629Z,65.82
2023-01-20T01:24:22.400Z,66.11
2023-01-20T01:27:31.006Z,66.16
2023-01-20T01:30:36.669Z,66.39
2023-01-20T01:33:43.649Z,66.76
2023-01-20T01:36:51.949Z,66.59
2023-01-20T01:39:58.559Z,66.73
2023-01-20T01:43:03.998Z,66.13
2023-01-20T01:46:10.435Z,66.23
2023-01-20T01:49:23.929Z,66.10
2023-01-20T01:52:33.250Z,66.35
2023-01-20T01:55:46.890Z,66.33
2023-01-20T01:59:00.390Z,66.83
2023-01-20T02:02:06.577Z,66.72
2023-01-20T02:05:15.593Z,66.96
2023-01-20T02:08:24.293Z,67.72
2023-01-20T02:11:31.639Z,67.11
2023-01-20T02:14:45.267Z,67.97
2023-01-20T02:18:27.819Z,67.89
2023-01-20T02:22:07.581Z,67.91
2023-01-20T02:26:06.294Z,68.34
2023-01-20T02:30:15.463Z,68.17
2023-01-20T02:33:35.743Z,68.23
2023-01-20T02:36:50.882Z,68.11
2023-01-20T02:40:17.808Z,67.29
2023-01-20T02:43:36.803Z,67.56
2023-01-20T02:46:55.364Z,68.02
2023-01-20T02:50:14.471Z,68.56
2023-01-20T02:53:26.575Z,69.01
2023-01-20T02:56:36.230Z,69.17
2023-01-20T02:59:53.716Z,69.07
2023-01-20T03:03:05.748Z,68.23
2023-01-20T03:06:24.848Z,67.84
2023-01-20T03:09:40.783Z,67.28
2023-01-20T03:12:56.206Z,67.97
2023-01-20T03:16:08.186Z,67.54
2023-01-20T03:19:15.176Z,66.83
2023-01-20T03:22:23.526Z,67.17
2023-01-20T03:25:30.301Z,66.95
2023-01-20T03:28:36.143Z,67.25
2023-01-20T03:31:49.760Z,67.49
2023-01-20T03:34:59.832Z,67.11
2023-01-20T03:38:10.251Z,67.65
2023-01-20T03:41:29.559Z,66.53
2023-01-20T03:45:00.816Z,66.32
2023-01-20T03:48:19.059Z,65.92
2023-01-20T03:51:38.115Z,64.85
2023-01-20T03:54:56.832Z,64.63
2023-01-20T03:58:09.511Z,64.17
2023-01-20T04:01:19.824Z,65.23
2023-01-20T04:04:27.256Z,64.78
2023-01-20T04:07:36.247Z,65.04
2023-01-20T04:10:51.551Z,64.38
2023-01-20T04:13:58.443Z,64.96
2023-01-20T04:17:08.135Z,65.58
2023-01-20T04:20:19.028Z,64.99
2023-01-20T04:23:35.577Z,65.49
2023-01-20T04:26:44.151Z,65.44
2023-01-20T04:29:50.602Z,64.92
2023-01-20T04:32:56.032Z,65.31
2023-01-20T04:36:02.501Z,65.09
2023-01-20T04:39:07.975Z,66.09
2023-01-20T04:42:17.235Z,66.29
2023-01-20T04:45:22.658Z,66.09
2023-01-20T04:48:29.046Z,67.38
2023-01-20T04:51:35.589Z,66.93
2023-01-20T04:54:42.108Z,67.60
2023-01-20T04:57:50.776Z,67.31
2023-01-20T05:00:57.104Z,67.40
2023-01-20T05:04:02.791Z,67.84
2023-01-20T05:07:09.147Z,68.07
2023-01-20T05:10:15.154Z,68.44
2023-01-20T05:13:24.933Z,68.39
2023-01-20T05:16:32.240Z,67.41
2023-01-20T05:19:38.483Z,67.19
2023-01-20T05:22:44.263Z,67.86
2023-01-20T05:25:54.413Z,67.13
2023-01-20T05:29:02.903Z,67.84
2023-01-20T05:32:09.270Z,68.13
2023-01-20T05:35:14.920Z,66.94
2023-01-20T05:38:21.730Z,67.39
2023-01-20T05:41:27.150Z,66.79
2023-01-20T05:44:36.344Z,68.17
2023-01-20T05:47:41.827Z,67.09
2023-01-20T05:50:48.112Z,67.85
2023-01-20T05:53:54.056Z,68.36
2023-01-20T05:57:00.840Z,67.26
2023-01-20T06:00:12.781Z,67.89
2023-01-20T06:03:19.023Z,66.65
2023-01-20T06:06:24.749Z,66.78
2023-01-20T06:09:31.198Z,67.18
2023-01-20T06:12:36.586Z,65.44
2023-01-20T06:15:45.655Z,65.38
2023-01-20T06:18:51.123Z,66.43
2023-01-20T06:21:57.332Z,65.45
2023-01-20T06:25:02.916Z,66.21
2023-01-20T06:28:09.327Z,65.82
2023-01-20T06:31:19.909Z,66.46
2023-01-20T06:34:26.280Z,65.79
2023-01-20T06:37:31.922Z,65.32
2023-01-20T06:40:38.218Z,65.36
2023-01-20T06:43:43.667Z,65.04
2023-01-20T06:46:52.713Z,65.35
2023-01-20T06:49:58.242Z,66.03
2023-01-20T06:53:04.515Z,65.68
2023-01-20T06:56:12.465Z,66.59
2023-01-20T06:59:18.960Z,66.03
2023-01-20T07:02:27.237Z,66.20
2023-01-20T07:05:34.430Z,65.84
2023-01-20T07:08:40.075Z,66.87
2023-01-20T07:11:46.502Z,66.22
2023-01-20T07:14:51.964Z,67.39
2023-01-20T07:18:01.662Z,65.35
2023-01-20T07:21:07.966Z,66.58
2023-01-20T07:24:14.472Z,67.17
2023-01-20T07:27:20.359Z,66.11
2023-01-20T07:30:26.818Z,67.36
2023-01-20T07:33:35.874Z,66.30
2023-01-20T07:36:42.195Z,65.47
2023-01-20T07:39:47.966Z,65.85
2023-01-20T07:42:54.687Z,65.37
2023-01-20T07:46:00.557Z,66.15
2023-01-20T07:49:12.078Z,65.85
2023-01-20T07:52:18.107Z,66.14
2023-01-20T07:55:25.264Z,66.10
2023-01-20T07:58:31.659Z,65.64
2023-01-20T08:01:40.433Z,64.64
2023-01-20T08:04:48.996Z,64.59
2023-01-20T08:07:55.509Z,65.47
2023-01-20T08:11:01.589Z,65.34
2023-01-20T08:14:08.445Z,65.21
2023-01-20T08:17:14.144Z,65.33
2023-01-20T08:20:23.318Z,64.31
2023-01-20T08:23:29.232Z,64.25
2023-01-20T08:26:37.485Z,64.47
2023-01-20T08:29:42.964Z,63.78
2023-01-20T08:32:49.220Z,64.78
2023-01-20T08:35:59.420Z,63.54
2023-01-20T08:39:10.835Z,64.55
2023-01-20T08:42:16.235Z,63.69
2023-01-20T08:45:22.627Z,64.18
2023-01-20T08:48:28.256Z,64.29
2023-01-20T08:51:37.869Z,63.44
2023-01-20T08:54:43.896Z,63.36
2023-01-20T08:57:50.162Z,64.16
2023-01-20T09:00:56.196Z,62.68
2023-01-20T09:04:06.308Z,62.71
2023-01-20T09:07:16.619Z,62.17
2023-01-20T09:10:23.172Z,62.40
2023-01-20T09:13:28.657Z,62.62
2023-01-20T09:16:35.609Z,62.22
2023-01-20T09:19:41.649Z,62.12
2023-01-20T09:22:50.834Z,62.49
2023-01-20T09:25:57.007Z,62.85
2023-01-20T09:29:10.041Z,61.69
2023-01-20T09:32:16.696Z,61.81
2023-01-20T09:35:23.624Z,61.34
2023-01-20T09:38:48.888Z,61.59
2023-01-20T09:42:11.387Z,62.37
2023-01-20T09:45:29.433Z,62.13
2023-01-20T09:49:10.706Z,61.85
2023-01-20T09:52:45.447Z,62.10
2023-01-20T09:55:59.719Z,62.45
2023-01-20T09:59:16.411Z,62.58
2023-01-20T10:02:33.839Z,61.90
2023-01-20T10:05:43.315Z,62.33
2023-01-20T10:09:06.661Z,62.49
2023-01-20T10:12:24.633Z,62.73
2023-01-20T10:15:38.920Z,62.33
2023-01-20T10:18:58.507Z,62.68
2023-01-20T10:22:18.400Z,62.71
2023-01-20T10:25:31.196Z,62.29
2023-01-20T10:28:50.284Z,62.82
2023-01-20T10:32:04.923Z,62.44
2023-01-20T10:35:22.109Z,62.96
2023-01-20T10:38:42.760Z,62.60
2023-01-20T10:41:58.178Z,62.13
2023-01-20T10:45:06.822Z,61.60
2023-01-20T10:48:38.722Z,62.40
2023-01-20T10:52:02.778Z,62.55
2023-01-20T10:55:27.199Z,62.78
2023-01-20T10:58:39.010Z,62.97
2023-01-20T11:02:06.315Z,63.45
2023-01-20T11:05:22.818Z,62.76
2023-01-20T11:08:33.491Z,63.29
2023-01-20T11:11:40.937Z,62.77
2023-01-20T11:14:50.179Z,62.83
2023-01-20T11:18:31.014Z,62.48
2023-01-20T11:21:41.025Z,62.37
2023-01-20T11:24:48.776Z,61.66
2023-01-20T11:27:55.929Z,60.93
2023-01-20T11:31:02.300Z,60.98
2023-01-20T11:34:26.702Z,61.89
2023-01-20T11:37:40.918Z,61.33
2023-01-20T11:40:57.503Z,61.03
2023-01-20T11:44:04.479Z,61.98
2023-01-20T11:47:26.610Z,61.76
2023-01-20T11:50:40.467Z,61.55
2023-01-20T11:53:47.064Z,61.48
2023-01-20T11:57:00.039Z,62.43
2023-01-20T12:00:07.954Z,62.00
2023-01-20T12:04:02.616Z,61.95
2023-01-20T12:07:21.849Z,62.51
2023-01-20T12:10:36.005Z,62.43
2023-01-20T12:14:18.630Z,62.57
2023-01-20T12:17:47.239Z,62.38
2023-01-20T12:21:08.198Z,62.90
2023-01-20T12:24:35.476Z,62.46
2023-01-20T12:27:54.827Z,62.51
2023-01-20T12:31:05.337Z,62.16
2023-01-20T12:34:18.480Z,62.20
2023-01-20T12:37:42.747Z,62.27
2023-01-20T12:40:55.850Z,62.17
2023-01-20T12:44:19.139Z,62.21
2023-01-20T12:47:58.267Z,62.55
2023-01-20T12:51:38.859Z,62.78
2023-01-20T12:55:29.565Z,63.70
2023-01-20T12:58:56.768Z,63.34
2023-01-20T13:02:45.275Z,63.70
2023-01-20T13:06:39.779Z,63.91
2023-01-20T13:10:19.727Z,63.78
2023-01-20T13:13:56.733Z,64.23
2023-01-20T13:17:18.967Z,64.30
2023-01-20T13:20:30.444Z,63.82
2023-01-20T13:23:40.280Z,64.11
2023-01-20T13:26:46.584Z,64.06
2023-01-20T13:30:03.267Z,64.22
2023-01-20T13:33:18.304Z,64.14
2023-01-20T13:36:28.135Z,64.51
2023-01-20T13:39:49.139Z,64.87
2023-01-20T13:42:55.947Z,64.56
2023-01-20T13:46:49.290Z,64.64
2023-01-20T13:49:57.455Z,65.17
2023-01-20T13:53:31.617Z,65.45
2023-01-20T13:56:50.321Z,65.31
2023-01-20T13:59:55.939Z,65.07
2023-01-20T14:03:24.563Z,64.93
2023-01-20T14:06:30.333Z,65.16
2023-01-20T14:09:37.573Z,64.59
2023-01-20T14:12:44.732Z,64.50
2023-01-20T14:15:57.286Z,64.96
2023-01-20T14:19:22.448Z,65.37
2023-01-20T14:22:32.887Z,64.91
2023-01-20T14:25:38.356Z,64.99
2023-01-20T14:28:51.884Z,64.87
2023-01-20T14:31:57.870Z,64.90
2023-01-20T14:35:21.235Z,65.32
2023-01-20T14:38:26.787Z,64.79
2023-01-20T14:41:37.870Z,65.55
2023-01-20T14:44:43.278Z,64.88
2023-01-20T14:47:50.495Z,64.54
2023-01-20T14:50:58.820Z,65.50
2023-01-20T14:54:36.978Z,65.23
2023-01-20T14:57:46.259Z,65.28
2023-01-20T15:00:54.836Z,64.65
2023-01-20T15:04:06.121Z,65.01
2023-01-20T15:07:23.763Z,64.80
2023-01-20T15:10:29.312Z,64.27
2023-01-20T15:13:37.689Z,64.29
2023-01-20T15:16:53.785Z,64.92
2023-01-20T15:20:00.131Z,65.25
2023-01-20T15:23:23.867Z,65.09
2023-01-20T15:26:34.672Z,65.77
2023-01-20T15:29:40.332Z,65.62
2023-01-20T15:32:46.586Z,65.00
2023-01-20T15:35:57.854Z,65.74
2023-01-20T15:39:07.204Z,65.92
2023-01-20T15:42:15.551Z,65.51
2023-01-20T15:45:22.680Z,65.73
2023-01-20T15:48:28.356Z,66.22
2023-01-20T15:51:34.633Z,66.04
2023-01-20T15:54:42.876Z,66.54
2023-01-20T15:57:55.095Z,66.77
2023-01-20T16:01:02.647Z,66.77
2023-01-20T16:04:09.345Z,67.25
2023-01-20T16:07:19.423Z,67.66
2023-01-20T16:10:28.574Z,67.50
2023-01-20T16:13:34.224Z,67.38
2023-01-20T16:16:40.588Z,66.56
2023-01-20T16:19:46.027Z,66.78
2023-01-20T16:22:52.721Z,66.84
2023-01-20T16:26:01.438Z,66.76
2023-01-20T16:29:08.060Z,66.40
2023-01-20T16:32:15.897Z,67.01
2023-01-20T16:35:25.709Z,66.91
2023-01-20T16:38:31.598Z,67.49
2023-01-20T16:41:41.270Z,67.59
2023-01-20T16:44:46.911Z,67.04
2023-01-20T16:47:53.893Z,67.14
2023-01-20T16:51:04.730Z,67.39
2023-01-20T16:54:12.833Z,67.75
2023-01-20T16:57:21.194Z,68.43
2023-01-20T17:00:30.200Z,68.08
2023-01-20T17:03:35.658Z,68.38
2023-01-20T17:06:42.381Z,68.32
2023-01-20T17:09:47.834Z,68.07
2023-01-20T17:12:59.121Z,68.62
2023-01-20T17:16:05.917Z,68.37
2023-01-20T17:19:13.341Z,68.22
2023-01-20T17:22:20.540Z,68.55
2023-01-20T17:25:27.203Z,68.76
2023-01-20T17:28:35.880Z,68.79
2023-01-20T17:31:43.121Z,69.77
2023-01-20T17:34:50.492Z,69.40
2023-01-20T17:37:56.807Z,69.29
2023-01-20T17:41:04.731Z,68.69
2023-01-20T17:44:15.258Z,68.66
2023-01-20T17:47:20.676Z,68.93
2023-01-20T17:50:27.038Z,68.97
2023-01-20T17:53:32.490Z,69.81
2023-01-20T17:56:38.819Z,70.02
2023-01-20T17:59:47.051Z,69.46
2023-01-20T18:02:53.717Z,69.72
2023-01-20T18:05:59.155Z,69.85
2023-01-20T18:09:05.787Z,70.69
2023-01-20T18:12:11.355Z,70.90
2023-01-20T18:15:21.517Z,70.53
2023-01-20T18:18:27.479Z,70.94
2023-01-20T18:21:37.032Z,70.25
2023-01-20T18:24:45.638Z,70.81
2023-01-20T18:27:52.007Z,70.75
2023-01-20T18:31:08.670Z,71.02
2023-01-20T18:34:18.232Z,71.49
2023-01-20T18:37:23.757Z,70.99
2023-01-20T18:40:30.062Z,71.78
2023-01-20T18:43:35.635Z,71.34
2023-01-20T18:46:44.808Z,72.29
2023-01-20T18:49:50.166Z,71.22
2023-01-20T18:52:58.563Z,71.65
2023-01-20T18:56:04.740Z,72.19
2023-01-20T18:59:11.578Z,72.37
2023-01-20T19:02:19.823Z,72.23
2023-01-20T19:05:26.256Z,71.51
2023-01-20T19:08:31.882Z,71.90
2023-01-20T19:11:41.529Z,71.90
2023-01-20T19:14:46.998Z,72.48
2023-01-20T19:17:56.953Z,71.47
2023-01-20T19:21:08.141Z,71.45
2023-01-20T19:24:22.141Z,71.36
2023-01-20T19:27:27.883Z,71.76
2023-01-20T19:30:34.299Z,71.52
2023-01-20T19:33:43.493Z,71.46
2023-01-20T19:36:49.812Z,71.47
2023-01-20T19:39:55.277Z,71.42
2023-01-20T19:43:01.854Z,72.10
2023-01-20T19:46:10.358Z,71.55
2023-01-20T19:49:19.456Z,72.03
2023-01-20T19:52:25.017Z,72.74
2023-01-20T19:55:31.913Z,72.41
2023-01-20T19:58:39.050Z,72.10
2023-01-20T20:01:45.860Z,72.44
2023-01-20T20:04:54.648Z,72.02
2023-01-20T20:08:03.617Z,71.08
2023-01-20T20:11:14.256Z,71.64
2023-01-20T20:14:27.475Z,72.14
2023-01-20T20:17:33.996Z,71.87
2023-01-20T20:20:44.790Z,71.91
2023-01-20T20:23:53.854Z,71.00
2023-01-20T20:27:01.037Z,71.30
2023-01-20T20:30:08.786Z,71.23
2023-01-20T20:33:17.702Z,71.26
2023-01-20T20:36:28.533Z,70.96
2023-01-20T20:39:35.558Z,71.05
2023-01-20T20:42:41.782Z,71.35
2023-01-20T20:45:48.977Z,71.49
2023-01-20T20:48:59.511Z,71.43
2023-01-20T20:52:09.609Z,71.75
2023-01-20T20:55:15.720Z,71.29
2023-01-20T20:58:22.992Z,71.76
2023-01-20T21:01:29.399Z,71.68
2023-01-20T21:04:37.412Z,70.70
2023-01-20T21:07:45.928Z,71.28
2023-01-20T21:10:52.412Z,71.07
2023-01-20T21:13:58.475Z,71.24
2023-01-20T21:17:05.219Z,71.83
2023-01-20T21:20:13.307Z,71.68
2023-01-20T21:23:23.063Z,71.66
2023-01-20T21:26:31.566Z,71.44
2023-01-20T21:29:38.799Z,71.16
2023-01-20T21:32:44.566Z,71.50
2023-01-20T21:35:51.281Z,70.50
2023-01-20T21:39:00.829Z,71.02
2023-01-20T21:42:09.332Z,72.03
2023-01-20T21:45:15.173Z,71.64
2023-01-20T21:48:33.756Z,70.94
2023-01-20T21:51:55.312Z,71.34
2023-01-20T21:55:04.670Z,71.11
2023-01-20T21:58:10.550Z,71.84
2023-01-20T22:01:16.986Z,70.89
2023-01-20T22:04:23.805Z,70.74
2023-01-20T22:07:30.236Z,70.70
2023-01-20T22:10:38.535Z,71.08
2023-01-20T22:13:55.720Z,70.06
2023-01-20T22:17:13.650Z,71.13
2023-01-20T22:20:20.890Z,70.35
2023-01-20T22:23:26.720Z,70.41
2023-01-20T22:26:36.114Z,71.00
2023-01-20T22:29:41.630Z,70.24
2023-01-20T22:32:48.182Z,70.76
2023-01-20T22:35:57.852Z,71.05
2023-01-20T22:39:05.383Z,70.49
2023-01-20T22:42:13.593Z,71.06
2023-01-20T22:45:20.229Z,70.59
2023-01-20T22:48:25.619Z,71.18
2023-01-20T22:51:33.630Z,71.51
2023-01-20T22:54:39.102Z,70.70
2023-01-20T22:57:48.240Z,70.98
2023-01-20T23:00:53.696Z,71.30
2023-01-20T23:04:03.236Z,71.48
2023-01-20T23:07:08.701Z,71.44
2023-01-20T23:10:36.493Z,71.03
2023-01-20T23:13:45.692Z,71.27
2023-01-20T23:16:52.547Z,70.80
2023-01-20T23:19:59.199Z,70.74
2023-01-20T23:23:05.937Z,70.33
2023-01-20T23:26:17.346Z,71.05
2023-01-20T23:29:26.451Z,70.31
2023-01-20T23:32:32.691Z,71.13
2023-01-20T23:35:41.115Z,71.01
2023-01-20T23:38:48.653Z,71.54
2023-01-20T23:41:55.085Z,71.12
2023-01-20T23:45:03.542Z,70.71
2023-01-20T23:48:10.719Z,71.50
2023-01-20T23:51:17.103Z,71.70
2023-01-20T23:54:23.777Z,71.20
2023-01-20T23:57:29.153Z,71.65
